createdAt,value
2019-04-03T00:00:34.599Z,20.30
2019-04-03T00:03:04.716Z,19.30
2019-04-03T00:05:35.015Z,18.87
2019-04-03T00:08:06.000Z,19.53
2019-04-03T00:10:33.235Z,19.60
2019-04-03T00:13:01.684Z,20.60
2019-04-03T00:15:30.314Z,19.03
2019-04-03T00:17:58.832Z,19.37
2019-04-03T00:20:27.152Z,20.10
2019-04-03T00:22:55.641Z,19.30
2019-04-03T00:25:24.232Z,20.27
2019-04-03T00:27:52.986Z,19.23
2019-04-03T00:30:22.503Z,18.70
2019-04-03T00:32:53.152Z,19.60
2019-04-03T00:35:23.207Z,18.93
2019-04-03T00:37:52.939Z,19.37
2019-04-03T00:40:21.137Z,18.73
2019-04-03T00:42:49.607Z,20.90
2019-04-03T00:45:18.103Z,19.20
2019-04-03T00:47:46.664Z,19.40
2019-04-03T00:50:15.074Z,19.47
2019-04-03T00:52:43.540Z,20.83
2019-04-03T00:55:11.862Z,21.03
2019-04-03T00:57:40.031Z,22.03
2019-04-03T01:00:11.722Z,22.10
2019-04-03T01:02:40.032Z,22.10
2019-04-03T01:05:08.493Z,21.07
2019-04-03T01:07:36.960Z,20.93
2019-04-03T01:10:05.633Z,21.63
2019-04-03T01:12:33.946Z,20.83
2019-04-03T01:15:02.722Z,21.70
2019-04-03T01:17:30.924Z,23.70
2019-04-03T01:19:59.413Z,20.90
2019-04-03T01:22:27.948Z,21.77
2019-04-03T01:24:56.355Z,20.87
2019-04-03T01:27:24.856Z,21.63
2019-04-03T01:29:53.057Z,22.27
2019-04-03T01:32:21.311Z,21.60
2019-04-03T01:34:49.793Z,22.87
2019-04-03T01:37:19.290Z,21.23
2019-04-03T01:39:49.037Z,21.20
2019-04-03T01:42:17.789Z,22.13
2019-04-03T01:44:46.274Z,22.13
2019-04-03T01:47:14.484Z,22.57
2019-04-03T01:49:42.755Z,21.13
2019-04-03T01:52:11.180Z,22.83
2019-04-03T01:54:39.664Z,22.63
2019-04-03T01:57:08.166Z,22.53
2019-04-03T01:59:37.571Z,22.07
2019-04-03T02:02:08.191Z,22.53
2019-04-03T02:04:36.219Z,22.17
2019-04-03T02:07:04.631Z,22.30
2019-04-03T02:09:33.271Z,23.03
2019-04-03T02:12:01.599Z,22.87
2019-04-03T02:14:29.872Z,22.23
2019-04-03T02:16:58.047Z,22.93
2019-04-03T02:19:26.648Z,23.60
2019-04-03T02:21:55.025Z,22.47
2019-04-03T02:24:23.497Z,22.50
2019-04-03T02:26:51.968Z,23.77
2019-04-03T02:29:20.463Z,22.80
2019-04-03T02:31:51.718Z,23.70
2019-04-03T02:34:19.000Z,22.63
2019-04-03T02:36:47.431Z,23.80
2019-04-03T02:39:16.131Z,23.37
2019-04-03T02:41:44.395Z,23.30
2019-04-03T02:44:12.878Z,22.07
2019-04-03T02:46:41.368Z,21.73
2019-04-03T02:49:10.964Z,24.33
2019-04-03T02:51:39.835Z,23.70
2019-04-03T02:54:11.306Z,24.27
2019-04-03T02:56:39.911Z,24.07
2019-04-03T02:59:08.110Z,23.33
2019-04-03T03:01:39.577Z,23.93
2019-04-03T03:04:07.629Z,22.43
2019-04-03T03:06:35.863Z,24.97
2019-04-03T03:09:05.329Z,24.77
2019-04-03T03:11:33.473Z,24.37
2019-04-03T03:14:01.833Z,26.03
2019-04-03T03:16:30.040Z,25.30
2019-04-03T03:19:00.867Z,25.33
2019-04-03T03:21:28.516Z,23.87
2019-04-03T03:23:57.328Z,26.23
2019-04-03T03:26:26.831Z,24.67
2019-04-03T03:28:55.265Z,25.40
2019-04-03T03:31:56.387Z,24.13
2019-04-03T03:34:00.548Z,26.07
2019-04-03T03:36:26.173Z,27.07
2019-04-03T03:38:54.175Z,26.47
2019-04-03T03:41:24.394Z,23.70
2019-04-03T03:43:53.229Z,26.70
2019-04-03T03:46:26.402Z,27.43
2019-04-03T03:48:51.990Z,27.63
2019-04-03T03:51:20.457Z,26.60
2019-04-03T03:53:48.945Z,26.50
2019-04-03T03:56:18.405Z,25.83
2019-04-03T03:58:48.834Z,27.17
2019-04-03T04:01:18.142Z,26.33
2019-04-03T04:03:46.879Z,26.57
2019-04-03T04:06:15.298Z,27.40
2019-04-03T04:08:45.214Z,26.30
2019-04-03T04:11:13.925Z,26.37
2019-04-03T04:13:42.824Z,27.63
2019-04-03T04:16:11.290Z,27.43
2019-04-03T04:18:40.436Z,28.43
2019-04-03T04:21:10.626Z,28.97
2019-04-03T04:23:38.849Z,28.63
2019-04-03T04:26:07.244Z,29.23
2019-04-03T04:28:39.526Z,28.43
2019-04-03T04:31:06.366Z,29.07
2019-04-03T04:33:34.742Z,28.30
2019-04-03T04:36:03.211Z,28.30
2019-04-03T04:38:31.924Z,28.43
2019-04-03T04:41:01.853Z,29.87
2019-04-03T04:43:30.219Z,29.00
2019-04-03T04:45:58.763Z,28.73
2019-04-03T04:48:27.187Z,29.17
2019-04-03T04:50:55.639Z,30.50
2019-04-03T04:53:24.300Z,28.50
2019-04-03T04:55:52.602Z,29.60
2019-04-03T04:58:20.895Z,29.73
2019-04-03T05:00:51.673Z,28.20
2019-04-03T05:03:19.756Z,29.57
2019-04-03T05:05:49.228Z,27.33
2019-04-03T05:08:17.426Z,31.07
2019-04-03T05:10:48.642Z,28.43
2019-04-03T05:13:16.365Z,30.67
2019-04-03T05:15:44.832Z,28.03
2019-04-03T05:18:13.168Z,28.87
2019-04-03T05:20:41.326Z,29.03
2019-04-03T05:23:09.539Z,29.30
2019-04-03T05:25:37.753Z,29.00
2019-04-03T05:28:05.947Z,30.77
2019-04-03T05:30:36.819Z,31.17
2019-04-03T05:33:04.165Z,30.80
2019-04-03T05:35:32.374Z,28.90
2019-04-03T05:38:00.575Z,31.23
2019-04-03T05:40:28.951Z,28.90
2019-04-03T05:42:59.258Z,29.60
2019-04-03T05:45:27.233Z,29.33
2019-04-03T05:47:55.434Z,29.67
2019-04-03T05:50:25.720Z,30.07
2019-04-03T05:52:53.777Z,29.70
2019-04-03T05:55:21.978Z,31.03
2019-04-03T05:57:50.167Z,30.93
2019-04-03T06:00:18.422Z,31.17
2019-04-03T06:02:46.568Z,30.57
2019-04-03T06:05:14.888Z,30.83
2019-04-03T06:07:43.120Z,30.70
2019-04-03T06:10:11.595Z,29.97
2019-04-03T06:12:39.726Z,30.07
2019-04-03T06:15:09.796Z,30.43
2019-04-03T06:17:37.938Z,30.17
2019-04-03T06:20:06.499Z,31.47
2019-04-03T06:22:34.710Z,29.90
2019-04-03T06:25:03.379Z,31.50
2019-04-03T06:27:31.583Z,31.73
2019-04-03T06:29:59.785Z,31.93
2019-04-03T06:32:29.462Z,32.37
2019-04-03T06:34:57.993Z,31.67
2019-04-03T06:37:26.210Z,31.20
2019-04-03T06:39:54.416Z,31.50
2019-04-03T06:42:22.629Z,31.07
2019-04-03T06:44:52.791Z,30.77
2019-04-03T06:47:20.779Z,31.23
2019-04-03T06:49:48.980Z,30.93
2019-04-03T06:52:17.199Z,31.87
2019-04-03T06:54:45.412Z,31.00
2019-04-03T06:57:14.246Z,30.77
2019-04-03T06:59:42.859Z,31.27
2019-04-03T07:02:11.014Z,30.93
2019-04-03T07:04:39.222Z,31.40
2019-04-03T07:07:08.102Z,30.27
2019-04-03T07:09:37.239Z,31.73
2019-04-03T07:12:05.484Z,31.50
2019-04-03T07:14:33.707Z,30.67
2019-04-03T07:17:05.108Z,30.97
2019-04-03T07:19:32.177Z,31.70
2019-04-03T07:22:00.338Z,30.87
2019-04-03T07:24:30.063Z,30.60
2019-04-03T07:26:58.467Z,30.77
2019-04-03T07:29:26.688Z,30.30
2019-04-03T07:31:55.693Z,30.83
2019-04-03T07:34:24.173Z,30.93
2019-04-03T07:36:52.387Z,31.73
2019-04-03T07:39:20.605Z,31.23
2019-04-03T07:41:48.818Z,31.03
2019-04-03T07:44:17.046Z,30.43
2019-04-03T07:46:45.247Z,31.20
2019-04-03T07:49:14.273Z,32.20
2019-04-03T07:51:43.882Z,30.10
2019-04-03T07:54:12.703Z,29.17
2019-04-03T07:56:40.941Z,28.90
2019-04-03T07:59:09.148Z,28.13
2019-04-03T08:01:40.302Z,29.50
2019-04-03T08:04:07.295Z,29.03
2019-04-03T08:06:36.334Z,29.40
2019-04-03T08:09:09.311Z,28.30
2019-04-03T08:11:37.563Z,28.33
2019-04-03T08:14:06.754Z,26.47
2019-04-03T08:16:35.955Z,26.83
2019-04-03T08:19:04.174Z,28.67
2019-04-03T08:21:32.389Z,28.77
2019-04-03T08:24:00.846Z,30.77
2019-04-03T08:26:29.058Z,30.87
2019-04-03T08:28:57.332Z,29.80
2019-04-03T08:31:25.488Z,28.23
2019-04-03T08:33:53.712Z,29.43
2019-04-03T08:36:25.381Z,27.03
2019-04-03T08:38:52.005Z,27.23
2019-04-03T08:41:20.168Z,29.77
2019-04-03T08:43:49.948Z,30.80
2019-04-03T08:46:18.264Z,29.10
2019-04-03T08:48:46.443Z,29.03
2019-04-03T08:51:14.651Z,26.93
2019-04-03T08:53:42.872Z,25.63
2019-04-03T08:56:12.796Z,27.63
2019-04-03T08:58:41.024Z,24.40
2019-04-03T09:01:10.743Z,24.53
2019-04-03T09:03:39.329Z,28.43
2019-04-03T09:06:07.540Z,26.53
2019-04-03T09:08:35.764Z,26.77
2019-04-03T09:11:05.459Z,26.77
2019-04-03T09:13:33.676Z,26.47
2019-04-03T09:16:01.886Z,27.87
2019-04-03T09:18:30.949Z,26.47
2019-04-03T09:20:59.195Z,26.00
2019-04-03T09:23:27.413Z,25.50
2019-04-03T09:25:55.632Z,25.80
2019-04-03T09:28:23.859Z,25.67
2019-04-03T09:30:53.991Z,26.33
2019-04-03T09:33:24.653Z,26.47
2019-04-03T09:35:52.130Z,26.27
2019-04-03T09:38:20.607Z,24.40
2019-04-03T09:40:48.843Z,25.47
2019-04-03T09:43:17.115Z,25.70
2019-04-03T09:45:45.330Z,24.90
2019-04-03T09:48:14.202Z,25.70
2019-04-03T09:50:45.631Z,24.77
2019-04-03T09:53:12.613Z,24.53
2019-04-03T09:55:40.726Z,24.20
2019-04-03T09:58:09.341Z,26.00
2019-04-03T10:00:37.574Z,27.63
2019-04-03T10:03:06.064Z,23.97
2019-04-03T10:05:34.246Z,24.30
2019-04-03T10:08:02.592Z,24.07
2019-04-03T10:10:30.764Z,26.27
2019-04-03T10:12:58.988Z,24.00
2019-04-03T10:15:27.304Z,24.53
2019-04-03T10:17:55.558Z,24.80
2019-04-03T10:20:23.716Z,25.13
2019-04-03T10:22:51.922Z,24.23
2019-04-03T10:25:20.554Z,25.87
2019-04-03T10:27:48.922Z,26.27
2019-04-03T10:30:20.349Z,27.93
2019-04-03T10:32:48.946Z,27.70
2019-04-03T10:35:17.126Z,27.70
2019-04-03T10:37:46.634Z,27.87
2019-04-03T10:40:15.801Z,27.17
2019-04-03T10:42:44.013Z,31.47
2019-04-03T10:45:12.510Z,30.50
2019-04-03T10:47:43.594Z,31.13
2019-04-03T10:50:11.529Z,29.70
2019-04-03T10:52:39.738Z,28.63
2019-04-03T10:55:08.057Z,28.73
2019-04-03T10:57:37.611Z,31.10
2019-04-03T11:00:09.101Z,30.47
2019-04-03T11:02:37.668Z,30.50
2019-04-03T11:05:08.793Z,31.67
2019-04-03T11:07:37.008Z,32.00
2019-04-03T11:10:06.970Z,29.73
2019-04-03T11:12:35.525Z,29.90
2019-04-03T11:15:10.469Z,30.17
2019-04-03T11:17:37.577Z,30.10
2019-04-03T11:20:10.331Z,29.27
2019-04-03T11:22:41.544Z,27.47
2019-04-03T11:25:09.114Z,23.90
2019-04-03T11:27:43.689Z,22.47
2019-04-03T11:30:14.050Z,21.13
2019-04-03T11:32:42.156Z,20.93
2019-04-03T11:35:10.605Z,20.90
2019-04-03T11:37:38.804Z,21.00
2019-04-03T11:40:10.595Z,19.47
2019-04-03T11:42:39.007Z,18.13
2019-04-03T11:45:07.952Z,19.27
2019-04-03T11:47:36.177Z,18.93
2019-04-03T11:50:06.815Z,19.13
2019-04-03T11:52:35.242Z,20.33
2019-04-03T11:55:04.797Z,20.70
2019-04-03T11:57:33.070Z,21.07
2019-04-03T12:00:01.251Z,22.90
2019-04-03T12:02:29.766Z,21.13
2019-04-03T12:04:58.108Z,20.33
2019-04-03T12:07:26.339Z,20.73
2019-04-03T12:09:55.050Z,21.87
2019-04-03T12:12:23.844Z,20.37
2019-04-03T12:14:52.224Z,20.90
2019-04-03T12:17:20.654Z,21.33
2019-04-03T12:19:49.145Z,22.47
2019-04-03T12:22:17.856Z,24.07
2019-04-03T12:24:46.108Z,23.67
2019-04-03T12:27:14.836Z,23.27
2019-04-03T12:29:43.591Z,23.50
2019-04-03T12:32:12.065Z,23.80
2019-04-03T12:34:40.548Z,22.73
2019-04-03T12:37:09.360Z,24.73
2019-04-03T12:39:37.517Z,24.33
2019-04-03T12:42:08.307Z,24.60
2019-04-03T12:44:36.000Z,24.90
2019-04-03T12:47:05.632Z,22.90
2019-04-03T12:49:34.698Z,22.33
2019-04-03T12:52:04.127Z,24.60
2019-04-03T12:54:33.331Z,23.17
2019-04-03T12:57:02.243Z,23.87
2019-04-03T12:59:30.474Z,23.30
2019-04-03T13:01:59.330Z,25.07
2019-04-03T13:04:30.219Z,23.73
2019-04-03T13:06:57.722Z,24.43
2019-04-03T13:09:26.452Z,25.93
2019-04-03T13:11:55.100Z,24.77
2019-04-03T13:14:26.453Z,25.57
2019-04-03T13:16:53.639Z,25.53
2019-04-03T13:19:24.475Z,23.43
2019-04-03T13:21:52.431Z,23.07
2019-04-03T13:24:21.334Z,24.27
2019-04-03T13:26:50.321Z,22.13
2019-04-03T13:29:20.847Z,24.63
2019-04-03T13:31:48.914Z,23.90
2019-04-03T13:34:17.565Z,24.70
2019-04-03T13:36:45.823Z,24.47
2019-04-03T13:39:14.347Z,24.07
2019-04-03T13:41:43.354Z,23.87
2019-04-03T13:44:12.333Z,23.77
2019-04-03T13:46:40.916Z,24.37
2019-04-03T13:49:09.438Z,24.27
2019-04-03T13:51:37.919Z,25.57
2019-04-03T13:54:07.561Z,25.47
2019-04-03T13:56:36.206Z,24.13
2019-04-03T13:59:04.719Z,25.17
2019-04-03T14:01:32.911Z,24.33
2019-04-03T14:04:01.569Z,24.87
2019-04-03T14:06:29.857Z,25.67
2019-04-03T14:08:58.147Z,26.80
2019-04-03T14:11:26.685Z,25.17
2019-04-03T14:13:56.417Z,24.80
2019-04-03T14:16:24.621Z,25.13
2019-04-03T14:18:53.262Z,26.23
2019-04-03T14:21:21.432Z,28.07
2019-04-03T14:23:49.763Z,28.57
2019-04-03T14:26:18.285Z,28.30
2019-04-03T14:28:46.458Z,28.00
2019-04-03T14:31:16.689Z,28.77
2019-04-03T14:33:46.934Z,28.83
2019-04-03T14:36:18.370Z,25.80
2019-04-03T14:38:45.721Z,29.17
2019-04-03T14:41:13.985Z,30.07
2019-04-03T14:43:42.195Z,29.27
2019-04-03T14:46:10.690Z,27.93
2019-04-03T14:48:38.908Z,27.17
2019-04-03T14:51:09.417Z,28.17
2019-04-03T14:53:37.062Z,28.07
2019-04-03T14:56:05.271Z,29.17
2019-04-03T14:58:33.813Z,28.30
2019-04-03T15:01:02.227Z,29.73
2019-04-03T15:03:30.457Z,29.20
2019-04-03T15:05:58.663Z,27.17
2019-04-03T15:08:27.352Z,28.30
2019-04-03T15:10:55.711Z,28.03
2019-04-03T15:13:23.861Z,26.50
2019-04-03T15:15:52.068Z,27.20
2019-04-03T15:18:20.290Z,27.10
2019-04-03T15:20:49.375Z,28.30
2019-04-03T15:23:18.803Z,28.00
2019-04-03T15:25:48.378Z,28.33
2019-04-03T15:28:17.479Z,27.07
2019-04-03T15:30:45.802Z,27.13
2019-04-03T15:33:14.232Z,25.67
2019-04-03T15:35:42.725Z,27.23
2019-04-03T15:38:13.451Z,27.00
2019-04-03T15:40:41.216Z,25.27
2019-04-03T15:43:11.950Z,25.23
2019-04-03T15:45:39.992Z,26.73
2019-04-03T15:48:08.218Z,25.30
2019-04-03T15:50:38.443Z,26.83
2019-04-03T15:53:06.814Z,24.63
2019-04-03T15:55:37.941Z,27.70
2019-04-03T15:58:05.003Z,25.43
2019-04-03T16:00:34.875Z,25.50
2019-04-03T16:03:03.154Z,28.27
2019-04-03T16:05:33.858Z,29.27
2019-04-03T16:08:01.300Z,25.90
2019-04-03T16:10:29.661Z,27.43
2019-04-03T16:12:57.823Z,29.07
2019-04-03T16:15:26.027Z,30.80
2019-04-03T16:17:54.423Z,29.93
2019-04-03T16:20:23.300Z,28.17
2019-04-03T16:22:51.518Z,27.13
2019-04-03T16:25:20.081Z,27.90
2019-04-03T16:27:48.795Z,26.70
2019-04-03T16:30:18.655Z,27.70
2019-04-03T16:32:46.937Z,29.03
2019-04-03T16:35:15.288Z,26.97
2019-04-03T16:37:44.108Z,27.00
2019-04-03T16:40:12.615Z,31.97
2019-04-03T16:42:40.804Z,34.27
2019-04-03T16:45:09.887Z,30.47
2019-04-03T16:47:38.095Z,30.40
2019-04-03T16:50:08.608Z,31.97
2019-04-03T16:52:37.819Z,29.33
2019-04-03T16:55:07.226Z,30.00
2019-04-03T16:57:35.701Z,28.70
2019-04-03T17:00:07.587Z,29.73
2019-04-03T17:02:35.169Z,30.40
2019-04-03T17:05:03.644Z,31.30
2019-04-03T17:07:31.872Z,29.17
2019-04-03T17:10:00.073Z,31.30
2019-04-03T17:12:28.943Z,31.37
2019-04-03T17:14:57.229Z,30.20
2019-04-03T17:17:25.798Z,30.60
2019-04-03T17:19:54.040Z,30.63
2019-04-03T17:22:22.256Z,32.60
2019-04-03T17:24:55.731Z,33.50
2019-04-03T17:27:22.076Z,33.57
2019-04-03T17:29:50.501Z,31.13
2019-04-03T17:32:18.651Z,34.17
2019-04-03T17:34:46.867Z,33.67
2019-04-03T17:37:15.234Z,32.13
2019-04-03T17:39:43.476Z,33.67
2019-04-03T17:42:11.688Z,31.70
2019-04-03T17:44:39.914Z,31.47
2019-04-03T17:47:08.122Z,33.00
2019-04-03T17:49:36.398Z,34.00
2019-04-03T17:52:05.018Z,31.70
2019-04-03T17:54:34.056Z,32.87
2019-04-03T17:57:02.277Z,34.40
2019-04-03T17:59:30.486Z,34.57
2019-04-03T18:01:58.704Z,34.10
2019-04-03T18:04:27.369Z,39.43
2019-04-03T18:06:57.306Z,38.97
2019-04-03T18:09:25.515Z,38.70
2019-04-03T18:11:53.736Z,40.20
2019-04-03T18:14:21.939Z,39.80
2019-04-03T18:16:50.137Z,35.20
2019-04-03T18:19:18.519Z,35.40
2019-04-03T18:21:46.881Z,34.17
2019-04-03T18:24:16.656Z,36.93
2019-04-03T18:26:45.116Z,36.33
2019-04-03T18:29:13.253Z,35.47
2019-04-03T18:31:44.301Z,33.73
2019-04-03T18:34:11.381Z,35.47
2019-04-03T18:36:39.590Z,36.50
2019-04-03T18:39:09.729Z,33.40
2019-04-03T18:41:38.427Z,35.83
2019-04-03T18:44:06.635Z,38.20
2019-04-03T18:46:36.853Z,36.40
2019-04-03T18:49:04.781Z,37.23
2019-04-03T18:51:32.994Z,37.47
2019-04-03T18:54:01.210Z,36.43
2019-04-03T18:56:31.944Z,37.93
2019-04-03T18:58:59.344Z,35.37
2019-04-03T19:01:28.012Z,36.37
2019-04-03T19:03:56.240Z,38.47
2019-04-03T19:06:24.441Z,36.67
2019-04-03T19:08:52.667Z,37.10
2019-04-03T19:11:20.878Z,35.30
2019-04-03T19:13:50.713Z,36.57
2019-04-03T19:16:28.994Z,37.03
2019-04-03T19:18:49.245Z,36.33
2019-04-03T19:21:24.285Z,38.00
2019-04-03T19:23:49.839Z,37.43
2019-04-03T19:26:17.325Z,37.83
2019-04-03T19:28:45.534Z,34.47
2019-04-03T19:31:13.745Z,35.27
2019-04-03T19:33:44.736Z,36.50
2019-04-03T19:36:11.842Z,39.20
2019-04-03T19:38:41.317Z,39.20
2019-04-03T19:41:11.576Z,39.77
2019-04-03T19:43:39.423Z,40.27
2019-04-03T19:46:07.622Z,40.20
2019-04-03T19:48:35.819Z,38.53
2019-04-03T19:51:04.032Z,41.67
2019-04-03T19:53:32.229Z,35.67
2019-04-03T19:56:00.445Z,40.03
2019-04-03T19:58:29.611Z,39.80
2019-04-03T20:00:57.905Z,37.43
2019-04-03T20:03:26.345Z,39.63
2019-04-03T20:05:55.216Z,37.43
2019-04-03T20:08:23.516Z,38.40
2019-04-03T20:10:51.712Z,38.13
2019-04-03T20:13:19.914Z,39.07
2019-04-03T20:15:48.110Z,40.20
2019-04-03T20:18:16.315Z,38.23
2019-04-03T20:20:44.532Z,40.67
2019-04-03T20:23:12.730Z,40.33
2019-04-03T20:25:41.783Z,40.67
2019-04-03T20:28:10.233Z,37.53
2019-04-03T20:30:38.568Z,38.20
2019-04-03T20:33:06.773Z,38.30
2019-04-03T20:35:34.996Z,37.37
2019-04-03T20:38:03.196Z,39.53
2019-04-03T20:40:32.085Z,37.83
2019-04-03T20:43:01.430Z,36.60
2019-04-03T20:45:29.645Z,39.07
2019-04-03T20:47:57.994Z,38.70
2019-04-03T20:50:26.153Z,39.50
2019-04-03T20:52:56.988Z,37.40
2019-04-03T20:55:25.455Z,39.80
2019-04-03T20:57:55.725Z,36.83
2019-04-03T21:00:23.645Z,36.43
2019-04-03T21:02:51.938Z,38.33
2019-04-03T21:05:20.423Z,38.10
2019-04-03T21:07:48.916Z,37.50
2019-04-03T21:10:17.385Z,34.80
2019-04-03T21:12:45.864Z,33.87
2019-04-03T21:15:14.542Z,35.60
2019-04-03T21:17:42.826Z,34.57
2019-04-03T21:20:11.396Z,32.77
2019-04-03T21:22:39.795Z,32.93
2019-04-03T21:25:08.303Z,34.30
2019-04-03T21:27:39.652Z,33.03
2019-04-03T21:30:10.034Z,31.27
2019-04-03T21:32:38.332Z,32.93
2019-04-03T21:35:06.878Z,35.20
2019-04-03T21:37:35.305Z,33.37
2019-04-03T21:40:05.015Z,35.60
2019-04-03T21:42:33.869Z,37.07
2019-04-03T21:45:02.985Z,36.57
2019-04-03T21:47:32.312Z,35.37
2019-04-03T21:50:03.499Z,39.83
2019-04-03T21:52:30.778Z,43.30
2019-04-03T21:54:59.276Z,43.63
2019-04-03T21:57:27.744Z,44.90
2019-04-03T21:59:56.246Z,43.27
2019-04-03T22:02:24.705Z,44.70
2019-04-03T22:04:53.855Z,42.60
2019-04-03T22:07:22.674Z,43.93
2019-04-03T22:09:51.179Z,41.37
2019-04-03T22:12:19.390Z,40.63
2019-04-03T22:14:47.627Z,40.73
2019-04-03T22:17:16.121Z,39.37
2019-04-03T22:19:45.321Z,39.63
2019-04-03T22:22:13.697Z,38.77
2019-04-03T22:24:42.062Z,39.70
2019-04-03T22:27:11.737Z,39.63
2019-04-03T22:29:40.576Z,44.57
2019-04-03T22:32:09.046Z,38.77
2019-04-03T22:34:37.542Z,42.40
2019-04-03T22:37:05.747Z,41.63
2019-04-03T22:39:33.989Z,40.00
2019-04-03T22:42:02.455Z,37.60
2019-04-03T22:44:30.679Z,39.27
2019-04-03T22:46:58.908Z,46.27
2019-04-03T22:49:27.424Z,46.03
2019-04-03T22:51:55.880Z,43.17
2019-04-03T22:54:24.770Z,47.77
2019-04-03T22:56:53.350Z,47.17
2019-04-03T22:59:23.767Z,43.83
2019-04-03T23:01:51.855Z,47.53
2019-04-03T23:04:20.326Z,50.00
2019-04-03T23:06:49.706Z,51.03
2019-04-03T23:09:18.322Z,50.80
2019-04-03T23:11:46.813Z,49.47
2019-04-03T23:14:15.279Z,49.77
2019-04-03T23:16:45.602Z,50.83
2019-04-03T23:19:13.803Z,50.83
2019-04-03T23:21:42.015Z,54.57
2019-04-03T23:24:10.222Z,49.43
2019-04-03T23:26:38.721Z,50.40
2019-04-03T23:29:07.189Z,53.30
2019-04-03T23:31:35.680Z,53.30
2019-04-03T23:34:04.163Z,51.63
2019-04-03T23:36:32.574Z,46.57
2019-04-03T23:39:01.123Z,52.83
2019-04-03T23:41:29.617Z,51.00
2019-04-03T23:43:58.075Z,53.33
2019-04-03T23:46:26.291Z,52.03
2019-04-03T23:48:54.551Z,54.60
2019-04-03T23:51:23.866Z,52.13
2019-04-03T23:53:53.024Z,50.37
2019-04-03T23:56:21.530Z,53.73
2019-04-03T23:58:49.988Z,53.87
